sensor_id;sensor_type;location;lat;lon;timestamp;pressure;altitude;pressure_sealevel;temperature;humidity
10145;BME280;5113;41.822;23.564;2023-10-09T00:00:12;-11418.66;;;17.49;64.52
10145;BME280;5113;41.822;23.564;2023-10-09T00:03:32;-11419.22;;;17.51;64.93
10145;BME280;5113;41.822;23.564;2023-10-09T00:06:43;-11416.94;;;17.43;65.53
10145;BME280;5113;41.822;23.564;2023-10-09T00:09:51;-11416.25;;;17.40;65.93
10145;BME280;5113;41.822;23.564;2023-10-09T00:13:00;-11416.94;;;17.43;65.93
10145;BME280;5113;41.822;23.564;2023-10-09T00:16:08;-11416.66;;;17.42;66.61
10145;BME280;5113;41.822;23.564;2023-10-09T00:19:21;-11413.16;;;17.29;67.18
10145;BME280;5113;41.822;23.564;2023-10-09T00:22:36;-11413.84;;;17.32;67.22
10145;BME280;5113;41.822;23.564;2023-10-09T00:25:49;-11416.66;;;17.42;67.03
10145;BME280;5113;41.822;23.564;2023-10-09T00:29:13;-11417.78;;;17.46;66.77
10145;BME280;5113;41.822;23.564;2023-10-09T00:32:26;-11414.41;;;17.34;67.40
10145;BME280;5113;41.822;23.564;2023-10-09T00:35:39;-11412.44;;;17.27;68.03
10145;BME280;5113;41.822;23.564;2023-10-09T00:39:01;-11414.13;;;17.33;67.56
10145;BME280;5113;41.822;23.564;2023-10-09T00:42:17;-11412.72;;;17.28;67.78
10145;BME280;5113;41.822;23.564;2023-10-09T00:45:32;-11411.88;;;17.25;67.55
10145;BME280;5113;41.822;23.564;2023-10-09T00:48:45;-11409.78;;;17.17;67.76
10145;BME280;5113;41.822;23.564;2023-10-09T00:51:54;-11409.50;;;17.16;67.89
10145;BME280;5113;41.822;23.564;2023-10-09T00:55:05;-11408.78;;;17.13;68.34
10145;BME280;5113;41.822;23.564;2023-10-09T00:58:19;-11406.94;;;17.07;68.41
10145;BME280;5113;41.822;23.564;2023-10-09T01:01:29;-11403.44;;;16.94;69.32
10145;BME280;5113;41.822;23.564;2023-10-09T01:04:39;-11398.50;;;16.76;70.80
10145;BME280;5113;41.822;23.564;2023-10-09T01:07:50;-11400.31;;;16.83;70.40
10145;BME280;5113;41.822;23.564;2023-10-09T01:11:04;-11400.03;;;16.82;70.55
10145;BME280;5113;41.822;23.564;2023-10-09T01:14:15;-11398.06;;;16.75;71.03
10145;BME280;5113;41.822;23.564;2023-10-09T01:17:22;-11398.06;;;16.75;71.02
10145;BME280;5113;41.822;23.564;2023-10-09T01:20:42;-11394.41;;;16.62;71.78
10145;BME280;5113;41.822;23.564;2023-10-09T01:23:52;-11393.56;;;16.59;71.84
10145;BME280;5113;41.822;23.564;2023-10-09T01:27:10;-11391.72;;;16.52;72.61
10145;BME280;5113;41.822;23.564;2023-10-09T01:30:21;-11392.28;;;16.54;72.92
10145;BME280;5113;41.822;23.564;2023-10-09T01:33:28;-11389.63;;;16.44;73.54
10145;BME280;5113;41.822;23.564;2023-10-09T01:36:36;-11386.09;;;16.32;74.97
10145;BME280;5113;41.822;23.564;2023-10-09T01:39:46;-11386.22;;;16.32;75.79
10145;BME280;5113;41.822;23.564;2023-10-09T01:42:53;-11383.97;;;16.24;77.13
10145;BME280;5113;41.822;23.564;2023-10-09T01:46:00;-11383.69;;;16.23;77.80
10145;BME280;5113;41.822;23.564;2023-10-09T01:49:10;-11383.41;;;16.22;77.71
10145;BME280;5113;41.822;23.564;2023-10-09T01:52:27;-11381.31;;;16.14;78.34
10145;BME280;5113;41.822;23.564;2023-10-09T01:55:36;-11381.16;;;16.14;77.91
10145;BME280;5113;41.822;23.564;2023-10-09T01:58:45;-11377.78;;;16.02;78.96
10145;BME280;5113;41.822;23.564;2023-10-09T02:01:53;-11379.03;;;16.06;78.44
10145;BME280;5113;41.822;23.564;2023-10-09T02:05:05;-11376.66;;;15.98;78.77
10145;BME280;5113;41.822;23.564;2023-10-09T02:08:15;-11377.22;;;16.00;77.13
10145;BME280;5113;41.822;23.564;2023-10-09T02:11:28;-11377.50;;;16.01;75.60
10145;BME280;5113;41.822;23.564;2023-10-09T02:14:44;-11376.78;;;15.98;74.26
10145;BME280;5113;41.822;23.564;2023-10-09T02:17:50;-11378.34;;;16.04;73.08
10145;BME280;5113;41.822;23.564;2023-10-09T02:21:07;-11375.09;;;15.92;73.40
10145;BME280;5113;41.822;23.564;2023-10-09T02:24:20;-11373.56;;;15.87;73.44
10145;BME280;5113;41.822;23.564;2023-10-09T02:27:48;-11373.69;;;15.87;73.25
10145;BME280;5113;41.822;23.564;2023-10-09T02:30:59;-11371.56;;;15.79;73.53
10145;BME280;5113;41.822;23.564;2023-10-09T02:34:08;-11371.56;;;15.79;73.33
10145;BME280;5113;41.822;23.564;2023-10-09T02:37:16;-11371.56;;;15.79;73.42
10145;BME280;5113;41.822;23.564;2023-10-09T02:40:28;-11370.03;;;15.74;73.82
10145;BME280;5113;41.822;23.564;2023-10-09T02:43:46;-11368.19;;;15.67;74.73
10145;BME280;5113;41.822;23.564;2023-10-09T02:46:55;-11371.28;;;15.78;74.29
10145;BME280;5113;41.822;23.564;2023-10-09T02:50:03;-11366.22;;;15.60;74.48
10145;BME280;5113;41.822;23.564;2023-10-09T02:53:24;-11364.09;;;15.52;74.16
10145;BME280;5113;41.822;23.564;2023-10-09T02:56:40;-11366.22;;;15.60;73.11
10145;BME280;5113;41.822;23.564;2023-10-09T02:59:49;-11363.13;;;15.49;73.80
10145;BME280;5113;41.822;23.564;2023-10-09T03:02:57;-11359.87;;;15.37;75.13
10145;BME280;5113;41.822;23.564;2023-10-09T03:06:04;-11357.91;;;15.30;76.22
10145;BME280;5113;41.822;23.564;2023-10-09T03:09:16;-11356.94;;;15.27;76.40
10145;BME280;5113;41.822;23.564;2023-10-09T03:12:23;-11360.88;;;15.41;72.40
10145;BME280;5113;41.822;23.564;2023-10-09T03:15:33;-11360.72;;;15.40;69.29
10145;BME280;5113;41.822;23.564;2023-10-09T03:18:41;-11356.22;;;15.24;69.24
10145;BME280;5113;41.822;23.564;2023-10-09T03:21:48;-11355.22;;;15.20;70.61
10145;BME280;5113;41.822;23.564;2023-10-09T03:24:55;-11356.06;;;15.24;69.30
10145;BME280;5113;41.822;23.564;2023-10-09T03:28:02;-11357.78;;;15.30;66.70
10145;BME280;5113;41.822;23.564;2023-10-09T03:31:10;-11353.81;;;15.15;66.98
10145;BME280;5113;41.822;23.564;2023-10-09T03:34:17;-11354.09;;;15.16;66.94
10145;BME280;5113;41.822;23.564;2023-10-09T03:37:23;-11351.28;;;15.06;67.62
10145;BME280;5113;41.822;23.564;2023-10-09T03:40:41;-11352.69;;;15.11;67.70
10145;BME280;5113;41.822;23.564;2023-10-09T03:43:47;-11348.47;;;14.96;69.71
10145;BME280;5113;41.822;23.564;2023-10-09T03:46:57;-11351.00;;;15.05;71.42
10145;BME280;5113;41.822;23.564;2023-10-09T03:50:04;-11348.91;;;14.98;72.86
10145;BME280;5113;41.822;23.564;2023-10-09T03:53:28;-11345.66;;;14.86;71.86
10145;BME280;5113;41.822;23.564;2023-10-09T03:56:35;-11346.78;;;14.90;71.82
10145;BME280;5113;41.822;23.564;2023-10-09T03:59:44;-11346.22;;;14.88;71.93
10145;BME280;5113;41.822;23.564;2023-10-09T04:02:53;-11342.84;;;14.76;73.59
10145;BME280;5113;41.822;23.564;2023-10-09T04:06:00;-11343.69;;;14.79;72.97
10145;BME280;5113;41.822;23.564;2023-10-09T04:09:08;-11341.44;;;14.71;72.96
10145;BME280;5113;41.822;23.564;2023-10-09T04:12:32;-11341.00;;;14.69;71.54
10145;BME280;5113;41.822;23.564;2023-10-09T04:15:39;-11341.00;;;14.69;71.07
10145;BME280;5113;41.822;23.564;2023-10-09T04:18:49;-11340.31;;;14.67;71.23
10145;BME280;5113;41.822;23.564;2023-10-09T04:21:57;-11339.47;;;14.64;71.05
10145;BME280;5113;41.822;23.564;2023-10-09T04:25:03;-11337.63;;;14.57;71.88
10145;BME280;5113;41.822;23.564;2023-10-09T04:28:12;-11335.22;;;14.48;73.74
10145;BME280;5113;41.822;23.564;2023-10-09T04:31:25;-11332.69;;;14.39;75.09
10145;BME280;5113;41.822;23.564;2023-10-09T04:34:39;-11331.28;;;14.34;75.90
10145;BME280;5113;41.822;23.564;2023-10-09T04:37:54;-11328.63;;;14.25;76.67
10145;BME280;5113;41.822;23.564;2023-10-09T04:41:09;-11326.78;;;14.18;77.42
10145;BME280;5113;41.822;23.564;2023-10-09T04:44:27;-11324.66;;;14.10;78.78
10145;BME280;5113;41.822;23.564;2023-10-09T04:47:41;-11324.81;;;14.11;78.27
10145;BME280;5113;41.822;23.564;2023-10-09T04:50:56;-11324.25;;;14.09;76.99
10145;BME280;5113;41.822;23.564;2023-10-09T04:54:22;-11324.81;;;14.11;76.71
10145;BME280;5113;41.822;23.564;2023-10-09T04:57:45;-11322.84;;;14.04;78.53
10145;BME280;5113;41.822;23.564;2023-10-09T05:01:07;-11326.38;;;14.16;77.89
10145;BME280;5113;41.822;23.564;2023-10-09T05:04:21;-11327.78;;;14.21;76.78
10145;BME280;5113;41.822;23.564;2023-10-09T05:07:45;-11327.22;;;14.19;76.39
10145;BME280;5113;41.822;23.564;2023-10-09T05:11:01;-11327.06;;;14.19;76.04
10145;BME280;5113;41.822;23.564;2023-10-09T05:14:23;-11327.91;;;14.22;75.93
10145;BME280;5113;41.822;23.564;2023-10-09T05:17:45;-11330.31;;;14.31;74.92
10145;BME280;5113;41.822;23.564;2023-10-09T05:21:01;-11325.09;;;14.12;74.27
10145;BME280;5113;41.822;23.564;2023-10-09T05:24:32;-11323.13;;;14.05;73.51
10145;BME280;5113;41.822;23.564;2023-10-09T05:27:49;-11327.06;;;14.19;72.38
10145;BME280;5113;41.822;23.564;2023-10-09T05:31:00;-11325.50;;;14.13;70.82
10145;BME280;5113;41.822;23.564;2023-10-09T05:34:13;-11329.19;;;14.27;69.88
10145;BME280;5113;41.822;23.564;2023-10-09T05:37:25;-11332.84;;;14.40;69.44
10145;BME280;5113;41.822;23.564;2023-10-09T05:40:35;-11334.09;;;14.44;68.53
10145;BME280;5113;41.822;23.564;2023-10-09T05:43:42;-11336.66;;;14.53;67.66
10145;BME280;5113;41.822;23.564;2023-10-09T05:47:05;-11329.31;;;14.27;68.15
10145;BME280;5113;41.822;23.564;2023-10-09T05:50:30;-11330.16;;;14.30;67.88
10145;BME280;5113;41.822;23.564;2023-10-09T05:54:05;-11333.56;;;14.42;67.08
10145;BME280;5113;41.822;23.564;2023-10-09T05:57:30;-11343.69;;;14.79;65.87
10145;BME280;5113;41.822;23.564;2023-10-09T06:00:50;-11349.47;;;15.00;64.99
10145;BME280;5113;41.822;23.564;2023-10-09T06:04:26;-11346.78;;;14.90;65.14
10145;BME280;5113;41.822;23.564;2023-10-09T06:07:55;-11353.25;;;15.13;64.57
10145;BME280;5113;41.822;23.564;2023-10-09T06:11:13;-11358.34;;;15.32;64.04
10145;BME280;5113;41.822;23.564;2023-10-09T06:14:35;-11354.66;;;15.18;64.50
10145;BME280;5113;41.822;23.564;2023-10-09T06:17:54;-11354.38;;;15.17;64.70
10145;BME280;5113;41.822;23.564;2023-10-09T06:21:05;-11359.31;;;15.35;63.75
10145;BME280;5113;41.822;23.564;2023-10-09T06:24:15;-11351.28;;;15.06;64.17
10145;BME280;5113;41.822;23.564;2023-10-09T06:27:22;-11359.59;;;15.36;63.47
10145;BME280;5113;41.822;23.564;2023-10-09T06:30:51;-11366.66;;;15.62;63.02
10145;BME280;5113;41.822;23.564;2023-10-09T06:33:58;-11357.91;;;15.30;63.45
10145;BME280;5113;41.822;23.564;2023-10-09T06:37:21;-11365.38;;;15.57;62.61
10145;BME280;5113;41.822;23.564;2023-10-09T06:40:47;-11378.91;;;16.06;61.98
10145;BME280;5113;41.822;23.564;2023-10-09T06:44:17;-11376.09;;;15.96;62.04
10145;BME280;5113;41.822;23.564;2023-10-09T06:47:47;-11372.72;;;15.83;61.86
10145;BME280;5113;41.822;23.564;2023-10-09T06:51:02;-11365.81;;;15.59;62.59
10145;BME280;5113;41.822;23.564;2023-10-09T07:07:25;-11392.16;;;16.54;60.66
10145;BME280;5113;41.822;23.564;2023-10-09T07:10:32;-11388.63;;;16.41;61.22
10145;BME280;5113;41.822;23.564;2023-10-09T07:13:44;-11386.22;;;16.32;61.19
10145;BME280;5113;41.822;23.564;2023-10-09T07:17:00;-11386.66;;;16.34;60.65
10145;BME280;5113;41.822;23.564;2023-10-09T07:20:07;-11385.66;;;16.30;60.59
10145;BME280;5113;41.822;23.564;2023-10-09T07:23:20;-11376.22;;;15.96;61.28
10145;BME280;5113;41.822;23.564;2023-10-09T07:26:33;-11389.03;;;16.42;60.47
10145;BME280;5113;41.822;23.564;2023-10-09T07:29:51;-11389.03;;;16.42;59.15
10145;BME280;5113;41.822;23.564;2023-10-09T07:33:01;-11404.41;;;16.98;57.05
10145;BME280;5113;41.822;23.564;2023-10-09T07:36:21;-11383.13;;;16.21;55.64
10145;BME280;5113;41.822;23.564;2023-10-09T07:39:41;-11380.59;;;16.12;55.92
10145;BME280;5113;41.822;23.564;2023-10-09T07:42:55;-11380.03;;;16.10;55.61
10145;BME280;5113;41.822;23.564;2023-10-09T07:46:11;-11387.34;;;16.36;55.63
10145;BME280;5113;41.822;23.564;2023-10-09T07:49:35;-11389.47;;;16.44;54.55
10145;BME280;5113;41.822;23.564;2023-10-09T07:52:42;-11396.66;;;16.70;53.86
10145;BME280;5113;41.822;23.564;2023-10-09T07:55:51;-11395.12;;;16.64;54.30
10145;BME280;5113;41.822;23.564;2023-10-09T07:59:00;-11401.72;;;16.88;53.28
10145;BME280;5113;41.822;23.564;2023-10-09T08:02:15;-11404.28;;;16.97;52.79
10145;BME280;5113;41.822;23.564;2023-10-09T08:05:24;-11400.19;;;16.82;52.06
10145;BME280;5113;41.822;23.564;2023-10-09T08:08:38;-11396.53;;;16.69;51.84
10145;BME280;5113;41.822;23.564;2023-10-09T08:12:08;-11392.72;;;16.56;51.33
10145;BME280;5113;41.822;23.564;2023-10-09T08:15:41;-11405.69;;;17.02;50.84
10145;BME280;5113;41.822;23.564;2023-10-09T08:18:57;-11401.72;;;16.88;50.64
10145;BME280;5113;41.822;23.564;2023-10-09T08:22:03;-11409.06;;;17.14;50.24
10145;BME280;5113;41.822;23.564;2023-10-09T08:25:38;-11422.72;;;17.64;49.56
10145;BME280;5113;41.822;23.564;2023-10-09T08:29:03;-11411.03;;;17.22;49.79
10145;BME280;5113;41.822;23.564;2023-10-09T08:32:27;-11420.63;;;17.56;48.55
10145;BME280;5113;41.822;23.564;2023-10-09T08:35:47;-11423.72;;;17.67;48.68
10145;BME280;5113;41.822;23.564;2023-10-09T08:38:54;-11420.47;;;17.56;48.50
10145;BME280;5113;41.822;23.564;2023-10-09T08:42:03;-11419.06;;;17.50;48.84
10145;BME280;5113;41.822;23.564;2023-10-09T08:45:15;-11435.84;;;18.11;47.71
10145;BME280;5113;41.822;23.564;2023-10-09T08:48:22;-11434.84;;;18.07;47.90
10145;BME280;5113;41.822;23.564;2023-10-09T08:51:34;-11436.69;;;18.14;47.74
10145;BME280;5113;41.822;23.564;2023-10-09T08:54:43;-11436.13;;;18.12;47.52
10145;BME280;5113;41.822;23.564;2023-10-09T08:57:50;-11433.31;;;18.02;47.92
10145;BME280;5113;41.822;23.564;2023-10-09T09:00:58;-11443.88;;;18.40;46.83
10145;BME280;5113;41.822;23.564;2023-10-09T09:04:06;-11453.91;;;18.76;46.43
10145;BME280;5113;41.822;23.564;2023-10-09T09:07:28;-11444.16;;;18.41;47.22
10145;BME280;5113;41.822;23.564;2023-10-09T09:10:37;-11460.94;;;19.01;46.72
10145;BME280;5113;41.822;23.564;2023-10-09T09:14:01;-11441.19;;;18.30;46.97
10145;BME280;5113;41.822;23.564;2023-10-09T09:17:22;-11448.94;;;18.58;45.53
10145;BME280;5113;41.822;23.564;2023-10-09T09:20:34;-11462.06;;;19.05;44.93
10145;BME280;5113;41.822;23.564;2023-10-09T09:23:53;-11467.72;;;19.26;44.86
10145;BME280;5113;41.822;23.564;2023-10-09T09:27:01;-11451.06;;;18.66;45.68
10145;BME280;5113;41.822;23.564;2023-10-09T09:30:25;-11453.34;;;18.74;45.58
10145;BME280;5113;41.822;23.564;2023-10-09T09:33:40;-11466.00;;;19.20;44.95
10145;BME280;5113;41.822;23.564;2023-10-09T09:36:51;-11466.44;;;19.21;44.93
10145;BME280;5113;41.822;23.564;2023-10-09T09:39:59;-11478.72;;;19.65;44.06
10145;BME280;5113;41.822;23.564;2023-10-09T09:43:06;-11477.88;;;19.62;44.39
10145;BME280;5113;41.822;23.564;2023-10-09T09:46:18;-11468.00;;;19.27;43.82
10145;BME280;5113;41.822;23.564;2023-10-09T09:49:30;-11480.13;;;19.70;43.37
10145;BME280;5113;41.822;23.564;2023-10-09T09:52:39;-11464.47;;;19.14;43.75
10145;BME280;5113;41.822;23.564;2023-10-09T09:55:49;-11467.44;;;19.25;43.59
10145;BME280;5113;41.822;23.564;2023-10-09T09:59:02;-11460.66;;;19.00;42.75
10145;BME280;5113;41.822;23.564;2023-10-09T10:02:14;-11482.94;;;19.81;42.34
10145;BME280;5113;41.822;23.564;2023-10-09T10:05:28;-11482.25;;;19.78;42.38
10145;BME280;5113;41.822;23.564;2023-10-09T10:08:35;-11480.41;;;19.71;42.62
10145;BME280;5113;41.822;23.564;2023-10-09T10:11:45;-11473.34;;;19.46;42.46
10145;BME280;5113;41.822;23.564;2023-10-09T10:14:53;-11480.41;;;19.71;41.05
10145;BME280;5113;41.822;23.564;2023-10-09T10:18:07;-11496.75;;;20.30;40.33
10145;BME280;5113;41.822;23.564;2023-10-09T10:21:16;-11486.03;;;19.92;40.31
10145;BME280;5113;41.822;23.564;2023-10-09T10:24:43;-11473.06;;;19.45;39.95
10145;BME280;5113;41.822;23.564;2023-10-09T10:28:17;-11498.16;;;20.35;38.25
10145;BME280;5113;41.822;23.564;2023-10-09T10:31:54;-11478.16;;;19.63;37.71
10145;BME280;5113;41.822;23.564;2023-10-09T10:35:01;-11505.38;;;20.61;36.16
10145;BME280;5113;41.822;23.564;2023-10-09T10:38:26;-11484.34;;;19.86;36.75
10145;BME280;5113;41.822;23.564;2023-10-09T10:41:38;-11500.16;;;20.42;36.30
10145;BME280;5113;41.822;23.564;2023-10-09T10:44:56;-11511.72;;;20.84;33.38
10145;BME280;5113;41.822;23.564;2023-10-09T10:48:03;-11504.09;;;20.57;34.22
10145;BME280;5113;41.822;23.564;2023-10-09T10:51:19;-11520.59;;;21.16;34.15
10145;BME280;5113;41.822;23.564;2023-10-09T10:54:28;-11511.28;;;20.83;33.94
10145;BME280;5113;41.822;23.564;2023-10-09T10:57:48;-11502.00;;;20.49;34.44
10145;BME280;5113;41.822;23.564;2023-10-09T11:01:15;-11516.94;;;21.03;35.38
10145;BME280;5113;41.822;23.564;2023-10-09T11:04:23;-11516.38;;;21.01;33.88
10145;BME280;5113;41.822;23.564;2023-10-09T11:07:43;-11539.78;;;21.85;33.90
10145;BME280;5113;41.822;23.564;2023-10-09T11:10:51;-11536.84;;;21.74;33.13
10145;BME280;5113;41.822;23.564;2023-10-09T11:14:08;-11528.09;;;21.43;33.84
10145;BME280;5113;41.822;23.564;2023-10-09T11:17:20;-11518.78;;;21.09;32.92
10145;BME280;5113;41.822;23.564;2023-10-09T11:20:31;-11527.53;;;21.41;31.79
10145;BME280;5113;41.822;23.564;2023-10-09T11:23:41;-11517.50;;;21.05;30.81
10145;BME280;5113;41.822;23.564;2023-10-09T11:26:59;-11519.75;;;21.13;30.93
10145;BME280;5113;41.822;23.564;2023-10-09T11:30:11;-11528.94;;;21.46;31.67
10145;BME280;5113;41.822;23.564;2023-10-09T11:33:26;-11532.88;;;21.60;30.55
10145;BME280;5113;41.822;23.564;2023-10-09T11:36:35;-11516.50;;;21.01;30.06
10145;BME280;5113;41.822;23.564;2023-10-09T11:39:41;-11508.63;;;20.73;29.68
10145;BME280;5113;41.822;23.564;2023-10-09T11:43:03;-11528.22;;;21.43;29.26
10145;BME280;5113;41.822;23.564;2023-10-09T11:46:18;-11504.09;;;20.57;30.45
10145;BME280;5113;41.822;23.564;2023-10-09T11:49:48;-11510.31;;;20.79;29.86
10145;BME280;5113;41.822;23.564;2023-10-09T11:53:02;-11512.28;;;20.86;30.23
10145;BME280;5113;41.822;23.564;2023-10-09T11:56:39;-11514.25;;;20.93;30.16
10145;BME280;5113;41.822;23.564;2023-10-09T11:59:49;-11516.50;;;21.01;28.84
10145;BME280;5113;41.822;23.564;2023-10-09T12:02:57;-11525.25;;;21.33;28.80
10145;BME280;5113;41.822;23.564;2023-10-09T12:06:10;-11524.13;;;21.29;28.58
10145;BME280;5113;41.822;23.564;2023-10-09T12:09:18;-11504.09;;;20.57;29.41
10145;BME280;5113;41.822;23.564;2023-10-09T12:12:29;-11519.91;;;21.14;27.84
10145;BME280;5113;41.822;23.564;2023-10-09T12:15:38;-11527.81;;;21.42;26.65
10145;BME280;5113;41.822;23.564;2023-10-09T12:18:44;-11520.19;;;21.15;25.59
10145;BME280;5113;41.822;23.564;2023-10-09T12:21:58;-11521.03;;;21.18;25.72
10145;BME280;5113;41.822;23.564;2023-10-09T12:25:06;-11528.38;;;21.44;25.01
10145;BME280;5113;41.822;23.564;2023-10-09T12:28:15;-11523.28;;;21.26;25.18
10145;BME280;5113;41.822;23.564;2023-10-09T12:31:26;-11542.19;;;21.94;23.42
10145;BME280;5113;41.822;23.564;2023-10-09T12:34:39;-11551.22;;;22.26;23.67
10145;BME280;5113;41.822;23.564;2023-10-09T12:37:47;-11570.69;;;22.96;24.04
10145;BME280;5113;41.822;23.564;2023-10-09T12:41:01;-11567.31;;;22.84;24.05
10145;BME280;5113;41.822;23.564;2023-10-09T12:44:13;-11571.28;;;22.98;23.52
10145;BME280;5113;41.822;23.564;2023-10-09T12:47:25;-11543.03;;;21.97;24.46
10145;BME280;5113;41.822;23.564;2023-10-09T12:50:34;-11558.28;;;22.52;25.19
10145;BME280;5113;41.822;23.564;2023-10-09T12:53:47;-11535.13;;;21.68;23.05
10145;BME280;5113;41.822;23.564;2023-10-09T12:56:53;-11552.63;;;22.31;23.59
10145;BME280;5113;41.822;23.564;2023-10-09T13:00:00;-11536.56;;;21.73;23.86
10145;BME280;5113;41.822;23.564;2023-10-09T13:03:17;-11525.25;;;21.33;24.73
10145;BME280;5113;41.822;23.564;2023-10-09T13:06:24;-11539.66;;;21.85;24.88
10145;BME280;5113;41.822;23.564;2023-10-09T13:09:30;-11527.53;;;21.41;24.13
10145;BME280;5113;41.822;23.564;2023-10-09T13:12:41;-11539.78;;;21.85;23.91
10145;BME280;5113;41.822;23.564;2023-10-09T13:15:47;-11535.13;;;21.68;23.97
10145;BME280;5113;41.822;23.564;2023-10-09T13:18:56;-11540.50;;;21.88;22.98
10145;BME280;5113;41.822;23.564;2023-10-09T13:22:04;-11535.13;;;21.68;24.02
10145;BME280;5113;41.822;23.564;2023-10-09T13:25:18;-11542.91;;;21.96;23.02
10145;BME280;5113;41.822;23.564;2023-10-09T13:28:38;-11530.06;;;21.50;23.81
10145;BME280;5113;41.822;23.564;2023-10-09T13:31:45;-11522.16;;;21.22;23.89
10145;BME280;5113;41.822;23.564;2023-10-09T13:34:54;-11540.06;;;21.86;24.14
10145;BME280;5113;41.822;23.564;2023-10-09T13:38:01;-11530.63;;;21.52;24.29
10145;BME280;5113;41.822;23.564;2023-10-09T13:41:13;-11539.94;;;21.86;24.08
10145;BME280;5113;41.822;23.564;2023-10-09T13:44:22;-11515.66;;;20.98;24.39
10145;BME280;5113;41.822;23.564;2023-10-09T13:47:31;-11533.88;;;21.64;24.26
10145;BME280;5113;41.822;23.564;2023-10-09T13:50:42;-11538.81;;;21.82;24.61
10145;BME280;5113;41.822;23.564;2023-10-09T13:53:49;-11526.94;;;21.39;25.24
10145;BME280;5113;41.822;23.564;2023-10-09T13:56:55;-11508.63;;;20.73;25.31
10145;BME280;5113;41.822;23.564;2023-10-09T14:00:02;-11518.78;;;21.09;25.08
10145;BME280;5113;41.822;23.564;2023-10-09T14:03:15;-11523.44;;;21.26;24.96
10145;BME280;5113;41.822;23.564;2023-10-09T14:06:27;-11520.47;;;21.16;25.67
10145;BME280;5113;41.822;23.564;2023-10-09T14:09:40;-11528.38;;;21.44;25.40
10145;BME280;5113;41.822;23.564;2023-10-09T14:12:50;-11535.84;;;21.71;25.40
10145;BME280;5113;41.822;23.564;2023-10-09T14:16:00;-11544.44;;;22.02;25.39
10145;BME280;5113;41.822;23.564;2023-10-09T14:19:11;-11531.19;;;21.54;24.86
10145;BME280;5113;41.822;23.564;2023-10-09T14:22:22;-11530.91;;;21.53;24.42
10145;BME280;5113;41.822;23.564;2023-10-09T14:25:30;-11529.78;;;21.49;24.79
10145;BME280;5113;41.822;23.564;2023-10-09T14:28:37;-11533.59;;;21.63;25.40
10145;BME280;5113;41.822;23.564;2023-10-09T14:31:43;-11507.78;;;20.70;26.31
10145;BME280;5113;41.822;23.564;2023-10-09T14:34:55;-11511.28;;;20.83;26.32
10145;BME280;5113;41.822;23.564;2023-10-09T14:38:07;-11514.97;;;20.96;26.34
10145;BME280;5113;41.822;23.564;2023-10-09T14:41:18;-11499.31;;;20.39;26.84
10145;BME280;5113;41.822;23.564;2023-10-09T14:44:28;-11515.38;;;20.97;26.31
10145;BME280;5113;41.822;23.564;2023-10-09T14:47:35;-11524.97;;;21.32;26.71
10145;BME280;5113;41.822;23.564;2023-10-09T14:50:46;-11527.81;;;21.42;27.08
10145;BME280;5113;41.822;23.564;2023-10-09T14:53:57;-11542.75;;;21.96;26.93
10145;BME280;5113;41.822;23.564;2023-10-09T14:57:06;-11536.69;;;21.74;27.44
10145;BME280;5113;41.822;23.564;2023-10-09T15:00:16;-11479.84;;;19.69;29.96
10145;BME280;5113;41.822;23.564;2023-10-09T15:03:28;-11468.41;;;19.28;30.83
10145;BME280;5113;41.822;23.564;2023-10-09T15:06:42;-11461.94;;;19.05;30.90
10145;BME280;5113;41.822;23.564;2023-10-09T15:09:50;-11452.91;;;18.72;31.33
10145;BME280;5113;41.822;23.564;2023-10-09T15:12:57;-11442.47;;;18.35;32.26
10145;BME280;5113;41.822;23.564;2023-10-09T15:16:05;-11444.16;;;18.41;33.13
10145;BME280;5113;41.822;23.564;2023-10-09T15:19:11;-11439.22;;;18.23;34.08
10145;BME280;5113;41.822;23.564;2023-10-09T15:22:19;-11439.66;;;18.25;34.65
10145;BME280;5113;41.822;23.564;2023-10-09T15:25:27;-11438.66;;;18.21;35.52
10145;BME280;5113;41.822;23.564;2023-10-09T15:28:34;-11434.84;;;18.07;35.78
10145;BME280;5113;41.822;23.564;2023-10-09T15:31:40;-11435.84;;;18.11;36.17
10145;BME280;5113;41.822;23.564;2023-10-09T15:34:47;-11432.31;;;17.98;36.57
10145;BME280;5113;41.822;23.564;2023-10-09T15:37:54;-11431.34;;;17.95;36.70
10145;BME280;5113;41.822;23.564;2023-10-09T15:41:02;-11430.63;;;17.92;36.83
10145;BME280;5113;41.822;23.564;2023-10-09T15:44:11;-11431.63;;;17.96;36.63
10145;BME280;5113;41.822;23.564;2023-10-09T15:47:19;-11427.53;;;17.81;37.13
10145;BME280;5113;41.822;23.564;2023-10-09T15:50:26;-11432.19;;;17.98;36.43
10145;BME280;5113;41.822;23.564;2023-10-09T15:53:33;-11431.34;;;17.95;36.60
10145;BME280;5113;41.822;23.564;2023-10-09T15:56:41;-11431.06;;;17.94;36.82
10145;BME280;5113;41.822;23.564;2023-10-09T15:59:56;-11420.63;;;17.56;38.13
10145;BME280;5113;41.822;23.564;2023-10-09T16:03:04;-11425.41;;;17.73;37.28
10145;BME280;5113;41.822;23.564;2023-10-09T16:06:15;-11432.03;;;17.97;36.59
10145;BME280;5113;41.822;23.564;2023-10-09T16:09:22;-11429.94;;;17.90;36.69
10145;BME280;5113;41.822;23.564;2023-10-09T16:12:31;-11425.69;;;17.74;36.80
10145;BME280;5113;41.822;23.564;2023-10-09T16:15:41;-11425.69;;;17.74;37.14
10145;BME280;5113;41.822;23.564;2023-10-09T16:18:48;-11427.66;;;17.81;36.63
10145;BME280;5113;41.822;23.564;2023-10-09T16:21:55;-11417.22;;;17.44;37.58
10145;BME280;5113;41.822;23.564;2023-10-09T16:25:01;-11410.19;;;17.19;38.93
10145;BME280;5113;41.822;23.564;2023-10-09T16:28:15;-11415.25;;;17.37;38.00
10145;BME280;5113;41.822;23.564;2023-10-09T16:31:22;-11416.09;;;17.40;37.38
10145;BME280;5113;41.822;23.564;2023-10-09T16:34:28;-11416.66;;;17.42;37.23
10145;BME280;5113;41.822;23.564;2023-10-09T16:37:34;-11403.72;;;16.95;39.68
10145;BME280;5113;41.822;23.564;2023-10-09T16:40:41;-11411.03;;;17.22;37.91
10145;BME280;5113;41.822;23.564;2023-10-09T16:43:53;-11403.72;;;16.95;38.76
10145;BME280;5113;41.822;23.564;2023-10-09T16:47:01;-11403.56;;;16.95;39.79
10145;BME280;5113;41.822;23.564;2023-10-09T16:50:08;-11402.44;;;16.91;39.47
10145;BME280;5113;41.822;23.564;2023-10-09T16:53:16;-11400.47;;;16.83;39.83
10145;BME280;5113;41.822;23.564;2023-10-09T16:56:23;-11393.41;;;16.58;40.29
10145;BME280;5113;41.822;23.564;2023-10-09T16:59:31;-11393.00;;;16.57;40.70